sensor_id;sensor_type;location;lat;lon;timestamp;P1;durP1;ratioP1;P2;durP2;ratioP2
77038;SDS011;65970;50.476;4.840;2024-02-16T00:02:27;0.77;;;0.70;;
77038;SDS011;65970;50.476;4.840;2024-02-16T00:07:27;1.80;;;0.80;;
77038;SDS011;65970;50.476;4.840;2024-02-16T00:12:28;1.27;;;0.73;;
77038;SDS011;65970;50.476;4.840;2024-02-16T00:17:28;7.90;;;0.90;;
77038;SDS011;65970;50.476;4.840;2024-02-16T00:22:29;0.93;;;0.80;;
77038;SDS011;65970;50.476;4.840;2024-02-16T00:27:29;0.93;;;0.60;;
77038;SDS011;65970;50.476;4.840;2024-02-16T00:32:30;1.13;;;0.77;;
77038;SDS011;65970;50.476;4.840;2024-02-16T00:37:30;2.83;;;0.60;;
77038;SDS011;65970;50.476;4.840;2024-02-16T00:42:31;2.28;;;0.77;;
77038;SDS011;65970;50.476;4.840;2024-02-16T00:47:32;2.83;;;1.08;;
77038;SDS011;65970;50.476;4.840;2024-02-16T00:52:32;3.22;;;1.10;;
77038;SDS011;65970;50.476;4.840;2024-02-16T00:57:33;0.80;;;0.75;;
77038;SDS011;65970;50.476;4.840;2024-02-16T01:02:33;1.98;;;0.90;;
77038;SDS011;65970;50.476;4.840;2024-02-16T01:07:34;1.45;;;0.80;;
77038;SDS011;65970;50.476;4.840;2024-02-16T01:12:34;0.93;;;0.75;;
77038;SDS011;65970;50.476;4.840;2024-02-16T01:17:35;1.48;;;1.00;;
77038;SDS011;65970;50.476;4.840;2024-02-16T01:22:36;1.35;;;1.25;;
77038;SDS011;65970;50.476;4.840;2024-02-16T01:27:36;1.10;;;0.75;;
77038;SDS011;65970;50.476;4.840;2024-02-16T01:32:37;0.98;;;0.98;;
77038;SDS011;65970;50.476;4.840;2024-02-16T01:37:37;1.83;;;1.05;;
77038;SDS011;65970;50.476;4.840;2024-02-16T01:42:38;0.88;;;0.85;;
77038;SDS011;65970;50.476;4.840;2024-02-16T01:47:38;1.65;;;1.10;;
77038;SDS011;65970;50.476;4.840;2024-02-16T01:52:42;2.47;;;1.10;;
77038;SDS011;65970;50.476;4.840;2024-02-16T01:57:44;1.10;;;0.77;;
77038;SDS011;65970;50.476;4.840;2024-02-16T02:02:46;2.90;;;1.52;;
77038;SDS011;65970;50.476;4.840;2024-02-16T02:07:47;2.42;;;0.80;;
77038;SDS011;65970;50.476;4.840;2024-02-16T02:12:47;1.67;;;0.88;;
77038;SDS011;65970;50.476;4.840;2024-02-16T02:17:48;1.00;;;0.70;;
77038;SDS011;65970;50.476;4.840;2024-02-16T02:22:49;2.25;;;1.05;;
77038;SDS011;65970;50.476;4.840;2024-02-16T02:27:49;1.45;;;1.00;;
77038;SDS011;65970;50.476;4.840;2024-02-16T02:32:50;2.28;;;0.70;;
77038;SDS011;65970;50.476;4.840;2024-02-16T02:37:50;2.33;;;0.75;;
77038;SDS011;65970;50.476;4.840;2024-02-16T02:42:51;0.68;;;0.65;;
77038;SDS011;65970;50.476;4.840;2024-02-16T02:47:53;1.73;;;1.30;;
77038;SDS011;65970;50.476;4.840;2024-02-16T02:52:53;1.55;;;1.08;;
77038;SDS011;65970;50.476;4.840;2024-02-16T02:57:54;1.98;;;1.02;;
77038;SDS011;65970;50.476;4.840;2024-02-16T03:02:54;1.25;;;1.08;;
77038;SDS011;65970;50.476;4.840;2024-02-16T03:07:55;1.85;;;0.82;;
77038;SDS011;65970;50.476;4.840;2024-02-16T03:12:55;2.33;;;0.90;;
77038;SDS011;65970;50.476;4.840;2024-02-16T03:17:56;1.00;;;0.90;;
77038;SDS011;65970;50.476;4.840;2024-02-16T03:22:56;2.90;;;1.35;;
77038;SDS011;65970;50.476;4.840;2024-02-16T03:27:57;2.05;;;1.13;;
77038;SDS011;65970;50.476;4.840;2024-02-16T03:32:57;5.13;;;1.08;;
77038;SDS011;65970;50.476;4.840;2024-02-16T03:37:58;1.13;;;1.02;;
77038;SDS011;65970;50.476;4.840;2024-02-16T03:42:58;4.65;;;1.20;;
77038;SDS011;65970;50.476;4.840;2024-02-16T03:47:59;1.85;;;1.17;;
77038;SDS011;65970;50.476;4.840;2024-02-16T03:53:00;0.70;;;0.52;;
77038;SDS011;65970;50.476;4.840;2024-02-16T03:58:00;2.53;;;1.08;;
77038;SDS011;65970;50.476;4.840;2024-02-16T04:03:01;0.73;;;0.68;;
77038;SDS011;65970;50.476;4.840;2024-02-16T04:08:01;2.55;;;0.90;;
77038;SDS011;65970;50.476;4.840;2024-02-16T04:13:02;0.98;;;0.88;;
77038;SDS011;65970;50.476;4.840;2024-02-16T04:18:03;1.27;;;0.80;;
77038;SDS011;65970;50.476;4.840;2024-02-16T04:23:04;3.08;;;0.80;;
77038;SDS011;65970;50.476;4.840;2024-02-16T04:28:05;1.08;;;0.75;;
77038;SDS011;65970;50.476;4.840;2024-02-16T04:33:05;2.63;;;0.75;;
77038;SDS011;65970;50.476;4.840;2024-02-16T04:38:06;1.00;;;0.90;;
77038;SDS011;65970;50.476;4.840;2024-02-16T04:43:06;0.77;;;0.77;;
77038;SDS011;65970;50.476;4.840;2024-02-16T04:48:07;3.33;;;0.93;;
77038;SDS011;65970;50.476;4.840;2024-02-16T04:53:08;2.25;;;0.85;;
77038;SDS011;65970;50.476;4.840;2024-02-16T04:58:08;1.65;;;0.70;;
77038;SDS011;65970;50.476;4.840;2024-02-16T05:03:09;1.70;;;0.82;;
77038;SDS011;65970;50.476;4.840;2024-02-16T05:08:10;1.85;;;1.13;;
77038;SDS011;65970;50.476;4.840;2024-02-16T05:13:10;0.85;;;0.75;;
77038;SDS011;65970;50.476;4.840;2024-02-16T05:18:11;1.38;;;0.88;;
77038;SDS011;65970;50.476;4.840;2024-02-16T05:23:11;2.88;;;0.98;;
77038;SDS011;65970;50.476;4.840;2024-02-16T05:28:12;1.92;;;0.93;;
77038;SDS011;65970;50.476;4.840;2024-02-16T05:33:15;1.23;;;0.98;;
77038;SDS011;65970;50.476;4.840;2024-02-16T05:38:15;0.90;;;0.80;;
77038;SDS011;65970;50.476;4.840;2024-02-16T05:43:16;1.73;;;0.88;;
77038;SDS011;65970;50.476;4.840;2024-02-16T05:48:16;0.88;;;0.88;;
77038;SDS011;65970;50.476;4.840;2024-02-16T05:53:17;1.70;;;1.08;;
77038;SDS011;65970;50.476;4.840;2024-02-16T05:58:17;3.00;;;1.15;;
77038;SDS011;65970;50.476;4.840;2024-02-16T06:03:18;2.28;;;1.23;;
77038;SDS011;65970;50.476;4.840;2024-02-16T06:08:18;4.32;;;1.35;;
77038;SDS011;65970;50.476;4.840;2024-02-16T06:13:20;1.38;;;0.80;;
77038;SDS011;65970;50.476;4.840;2024-02-16T06:18:20;2.85;;;1.17;;
77038;SDS011;65970;50.476;4.840;2024-02-16T06:23:21;1.65;;;1.20;;
77038;SDS011;65970;50.476;4.840;2024-02-16T06:28:21;1.48;;;1.08;;
77038;SDS011;65970;50.476;4.840;2024-02-16T06:33:22;1.27;;;0.80;;
77038;SDS011;65970;50.476;4.840;2024-02-16T06:38:22;1.75;;;1.08;;
77038;SDS011;65970;50.476;4.840;2024-02-16T06:43:23;2.78;;;1.38;;
77038;SDS011;65970;50.476;4.840;2024-02-16T06:48:23;1.52;;;1.40;;
77038;SDS011;65970;50.476;4.840;2024-02-16T06:53:24;2.53;;;1.00;;
77038;SDS011;65970;50.476;4.840;2024-02-16T06:58:24;3.97;;;1.35;;
77038;SDS011;65970;50.476;4.840;2024-02-16T07:03:25;1.95;;;0.90;;
77038;SDS011;65970;50.476;4.840;2024-02-16T07:08:25;2.47;;;1.30;;
77038;SDS011;65970;50.476;4.840;2024-02-16T07:13:26;3.50;;;2.35;;
77038;SDS011;65970;50.476;4.840;2024-02-16T07:18:27;1.42;;;1.23;;
77038;SDS011;65970;50.476;4.840;2024-02-16T07:23:27;4.47;;;1.48;;
77038;SDS011;65970;50.476;4.840;2024-02-16T07:28:28;1.98;;;1.40;;
77038;SDS011;65970;50.476;4.840;2024-02-16T07:33:28;2.20;;;1.05;;
77038;SDS011;65970;50.476;4.840;2024-02-16T07:38:29;1.33;;;1.10;;
77038;SDS011;65970;50.476;4.840;2024-02-16T07:43:30;2.95;;;1.52;;
77038;SDS011;65970;50.476;4.840;2024-02-16T07:48:30;2.78;;;1.58;;
77038;SDS011;65970;50.476;4.840;2024-02-16T07:53:31;2.47;;;1.45;;
77038;SDS011;65970;50.476;4.840;2024-02-16T07:58:32;3.63;;;1.42;;
77038;SDS011;65970;50.476;4.840;2024-02-16T08:03:32;2.55;;;1.30;;
77038;SDS011;65970;50.476;4.840;2024-02-16T08:08:33;6.93;;;1.42;;
77038;SDS011;65970;50.476;4.840;2024-02-16T08:13:33;2.78;;;1.48;;
77038;SDS011;65970;50.476;4.840;2024-02-16T08:18:36;7.30;;;1.73;;
77038;SDS011;65970;50.476;4.840;2024-02-16T08:23:37;1.98;;;1.17;;
77038;SDS011;65970;50.476;4.840;2024-02-16T08:28:37;2.05;;;1.15;;
77038;SDS011;65970;50.476;4.840;2024-02-16T08:33:38;2.67;;;1.40;;
77038;SDS011;65970;50.476;4.840;2024-02-16T08:38:38;4.65;;;1.38;;
77038;SDS011;65970;50.476;4.840;2024-02-16T08:43:39;2.58;;;1.35;;
77038;SDS011;65970;50.476;4.840;2024-02-16T08:48:39;2.05;;;1.10;;
77038;SDS011;65970;50.476;4.840;2024-02-16T08:53:40;2.92;;;1.40;;
77038;SDS011;65970;50.476;4.840;2024-02-16T08:58:40;4.55;;;1.52;;
77038;SDS011;65970;50.476;4.840;2024-02-16T09:03:41;2.90;;;1.70;;
77038;SDS011;65970;50.476;4.840;2024-02-16T09:08:41;4.32;;;1.38;;
77038;SDS011;65970;50.476;4.840;2024-02-16T09:13:42;3.15;;;1.17;;
77038;SDS011;65970;50.476;4.840;2024-02-16T09:18:43;2.22;;;1.40;;
77038;SDS011;65970;50.476;4.840;2024-02-16T09:23:43;6.05;;;1.30;;
77038;SDS011;65970;50.476;4.840;2024-02-16T09:28:44;1.30;;;1.00;;
77038;SDS011;65970;50.476;4.840;2024-02-16T09:33:44;2.13;;;1.48;;
77038;SDS011;65970;50.476;4.840;2024-02-16T09:38:45;3.67;;;1.48;;
77038;SDS011;65970;50.476;4.840;2024-02-16T09:43:45;2.72;;;1.17;;
77038;SDS011;65970;50.476;4.840;2024-02-16T09:48:46;1.90;;;1.15;;
77038;SDS011;65970;50.476;4.840;2024-02-16T09:53:49;1.57;;;1.07;;
77038;SDS011;65970;50.476;4.840;2024-02-16T09:58:51;5.05;;;2.15;;
77038;SDS011;65970;50.476;4.840;2024-02-16T10:03:52;3.28;;;1.52;;
77038;SDS011;65970;50.476;4.840;2024-02-16T10:08:53;2.10;;;1.65;;
77038;SDS011;65970;50.476;4.840;2024-02-16T10:13:55;2.88;;;1.42;;
77038;SDS011;65970;50.476;4.840;2024-02-16T10:19:06;3.42;;;1.55;;
77038;SDS011;65970;50.476;4.840;2024-02-16T10:24:09;4.50;;;2.45;;
77038;SDS011;65970;50.476;4.840;2024-02-16T10:29:11;4.75;;;1.45;;
77038;SDS011;65970;50.476;4.840;2024-02-16T10:34:11;3.75;;;1.98;;
77038;SDS011;65970;50.476;4.840;2024-02-16T10:39:12;5.22;;;2.03;;
77038;SDS011;65970;50.476;4.840;2024-02-16T10:44:13;7.18;;;2.20;;
77038;SDS011;65970;50.476;4.840;2024-02-16T10:49:13;3.90;;;1.83;;
77038;SDS011;65970;50.476;4.840;2024-02-16T10:54:15;2.20;;;1.73;;
77038;SDS011;65970;50.476;4.840;2024-02-16T10:59:19;3.00;;;1.40;;
77038;SDS011;65970;50.476;4.840;2024-02-16T11:04:20;4.00;;;1.83;;
77038;SDS011;65970;50.476;4.840;2024-02-16T11:09:27;2.83;;;1.88;;
77038;SDS011;65970;50.476;4.840;2024-02-16T11:14:41;8.82;;;1.73;;
77038;SDS011;65970;50.476;4.840;2024-02-16T11:19:43;2.97;;;1.92;;
77038;SDS011;65970;50.476;4.840;2024-02-16T11:24:45;4.53;;;1.95;;
77038;SDS011;65970;50.476;4.840;2024-02-16T11:29:47;3.22;;;1.55;;
77038;SDS011;65970;50.476;4.840;2024-02-16T11:34:48;4.00;;;1.60;;
77038;SDS011;65970;50.476;4.840;2024-02-16T11:39:54;3.20;;;2.42;;
77038;SDS011;65970;50.476;4.840;2024-02-16T11:44:55;5.13;;;2.15;;
77038;SDS011;65970;50.476;4.840;2024-02-16T11:50:05;2.90;;;1.48;;
77038;SDS011;65970;50.476;4.840;2024-02-16T11:55:07;4.32;;;2.03;;
77038;SDS011;65970;50.476;4.840;2024-02-16T12:00:08;4.20;;;1.80;;
77038;SDS011;65970;50.476;4.840;2024-02-16T12:05:09;3.13;;;2.08;;
77038;SDS011;65970;50.476;4.840;2024-02-16T12:10:14;5.72;;;2.42;;
77038;SDS011;65970;50.476;4.840;2024-02-16T12:15:14;6.38;;;2.42;;
77038;SDS011;65970;50.476;4.840;2024-02-16T12:20:15;3.97;;;2.13;;
77038;SDS011;65970;50.476;4.840;2024-02-16T12:25:16;3.88;;;2.80;;
77038;SDS011;65970;50.476;4.840;2024-02-16T12:30:16;4.40;;;2.40;;
77038;SDS011;65970;50.476;4.840;2024-02-16T12:35:17;2.42;;;2.20;;
77038;SDS011;65970;50.476;4.840;2024-02-16T12:40:17;4.88;;;2.20;;
77038;SDS011;65970;50.476;4.840;2024-02-16T12:45:18;3.38;;;2.25;;
77038;SDS011;65970;50.476;4.840;2024-02-16T12:50:19;2.63;;;2.17;;
77038;SDS011;65970;50.476;4.840;2024-02-16T12:55:19;2.50;;;2.30;;
77038;SDS011;65970;50.476;4.840;2024-02-16T13:00:20;4.30;;;2.35;;
77038;SDS011;65970;50.476;4.840;2024-02-16T13:05:20;4.05;;;2.53;;
77038;SDS011;65970;50.476;4.840;2024-02-16T13:10:21;4.40;;;2.50;;
77038;SDS011;65970;50.476;4.840;2024-02-16T13:15:22;4.35;;;2.95;;
77038;SDS011;65970;50.476;4.840;2024-02-16T13:20:22;3.25;;;2.47;;
77038;SDS011;65970;50.476;4.840;2024-02-16T13:25:23;5.32;;;2.30;;
77038;SDS011;65970;50.476;4.840;2024-02-16T13:30:24;3.83;;;2.53;;
77038;SDS011;65970;50.476;4.840;2024-02-16T13:35:25;5.60;;;2.65;;
77038;SDS011;65970;50.476;4.840;2024-02-16T13:40:25;3.35;;;1.92;;
77038;SDS011;65970;50.476;4.840;2024-02-16T13:45:26;2.45;;;1.90;;
77038;SDS011;65970;50.476;4.840;2024-02-16T13:50:27;4.32;;;1.25;;
77038;SDS011;65970;50.476;4.840;2024-02-16T13:55:28;2.97;;;1.63;;
77038;SDS011;65970;50.476;4.840;2024-02-16T14:00:28;1.52;;;1.13;;
77038;SDS011;65970;50.476;4.840;2024-02-16T14:05:29;1.30;;;0.77;;
77038;SDS011;65970;50.476;4.840;2024-02-16T14:10:29;1.33;;;0.57;;
77038;SDS011;65970;50.476;4.840;2024-02-16T14:15:30;0.60;;;0.60;;
77038;SDS011;65970;50.476;4.840;2024-02-16T14:20:31;0.63;;;0.55;;
77038;SDS011;65970;50.476;4.840;2024-02-16T14:25:31;1.52;;;1.13;;
77038;SDS011;65970;50.476;4.840;2024-02-16T14:30:32;2.83;;;1.42;;
77038;SDS011;65970;50.476;4.840;2024-02-16T14:35:32;2.97;;;1.90;;
77038;SDS011;65970;50.476;4.840;2024-02-16T14:40:33;3.30;;;2.08;;
77038;SDS011;65970;50.476;4.840;2024-02-16T14:45:33;2.95;;;2.47;;
77038;SDS011;65970;50.476;4.840;2024-02-16T14:50:34;3.83;;;2.90;;
77038;SDS011;65970;50.476;4.840;2024-02-16T14:55:34;3.15;;;2.85;;
77038;SDS011;65970;50.476;4.840;2024-02-16T15:00:35;3.80;;;3.03;;
77038;SDS011;65970;50.476;4.840;2024-02-16T15:05:38;3.90;;;2.67;;
77038;SDS011;65970;50.476;4.840;2024-02-16T15:10:40;3.20;;;2.90;;
77038;SDS011;65970;50.476;4.840;2024-02-16T15:15:41;4.78;;;2.55;;
77038;SDS011;65970;50.476;4.840;2024-02-16T15:20:41;3.60;;;2.78;;
77038;SDS011;65970;50.476;4.840;2024-02-16T15:25:42;2.88;;;2.53;;
77038;SDS011;65970;50.476;4.840;2024-02-16T15:30:42;4.65;;;2.97;;
77038;SDS011;65970;50.476;4.840;2024-02-16T15:35:43;3.80;;;2.88;;
77038;SDS011;65970;50.476;4.840;2024-02-16T15:40:44;4.45;;;2.53;;
77038;SDS011;65970;50.476;4.840;2024-02-16T15:45:44;3.10;;;2.78;;
77038;SDS011;65970;50.476;4.840;2024-02-16T15:50:45;2.30;;;2.05;;
77038;SDS011;65970;50.476;4.840;2024-02-16T15:55:45;4.25;;;2.00;;
77038;SDS011;65970;50.476;4.840;2024-02-16T16:00:46;3.38;;;1.88;;
77038;SDS011;65970;50.476;4.840;2024-02-16T16:05:46;2.55;;;1.92;;
77038;SDS011;65970;50.476;4.840;2024-02-16T16:10:47;3.20;;;2.03;;
77038;SDS011;65970;50.476;4.840;2024-02-16T16:15:48;2.05;;;1.92;;
77038;SDS011;65970;50.476;4.840;2024-02-16T16:20:48;2.85;;;1.58;;
77038;SDS011;65970;50.476;4.840;2024-02-16T16:25:49;3.35;;;1.67;;
77038;SDS011;65970;50.476;4.840;2024-02-16T16:30:49;1.77;;;1.50;;
77038;SDS011;65970;50.476;4.840;2024-02-16T16:35:50;3.05;;;1.80;;
77038;SDS011;65970;50.476;4.840;2024-02-16T16:40:50;3.00;;;2.47;;
77038;SDS011;65970;50.476;4.840;2024-02-16T16:45:51;3.53;;;2.53;;
77038;SDS011;65970;50.476;4.840;2024-02-16T16:50:51;2.33;;;2.05;;
77038;SDS011;65970;50.476;4.840;2024-02-16T16:55:52;2.30;;;2.05;;
77038;SDS011;65970;50.476;4.840;2024-02-16T17:00:53;2.88;;;2.42;;
77038;SDS011;65970;50.476;4.840;2024-02-16T17:05:53;2.90;;;2.42;;
77038;SDS011;65970;50.476;4.840;2024-02-16T17:10:54;3.17;;;2.60;;
77038;SDS011;65970;50.476;4.840;2024-02-16T17:15:54;5.03;;;3.15;;
77038;SDS011;65970;50.476;4.840;2024-02-16T17:20:55;3.75;;;3.05;;
77038;SDS011;65970;50.476;4.840;2024-02-16T17:25:55;3.38;;;3.00;;
77038;SDS011;65970;50.476;4.840;2024-02-16T17:30:56;3.88;;;2.85;;
77038;SDS011;65970;50.476;4.840;2024-02-16T17:35:56;4.18;;;2.92;;
77038;SDS011;65970;50.476;4.840;2024-02-16T17:40:57;3.47;;;2.50;;
77038;SDS011;65970;50.476;4.840;2024-02-16T17:45:57;3.80;;;3.30;;
77038;SDS011;65970;50.476;4.840;2024-02-16T17:50:58;8.00;;;7.05;;
77038;SDS011;65970;50.476;4.840;2024-02-16T17:55:58;4.22;;;3.42;;
77038;SDS011;65970;50.476;4.840;2024-02-16T18:00:59;5.63;;;3.72;;
77038;SDS011;65970;50.476;4.840;2024-02-16T18:05:59;5.13;;;2.90;;
77038;SDS011;65970;50.476;4.840;2024-02-16T18:11:00;5.43;;;3.25;;
77038;SDS011;65970;50.476;4.840;2024-02-16T18:16:00;4.38;;;3.25;;
77038;SDS011;65970;50.476;4.840;2024-02-16T18:21:01;4.22;;;3.70;;
77038;SDS011;65970;50.476;4.840;2024-02-16T18:26:01;4.57;;;2.85;;
77038;SDS011;65970;50.476;4.840;2024-02-16T18:31:02;5.22;;;3.38;;
77038;SDS011;65970;50.476;4.840;2024-02-16T18:36:03;4.60;;;3.50;;
77038;SDS011;65970;50.476;4.840;2024-02-16T18:41:03;4.05;;;3.65;;
77038;SDS011;65970;50.476;4.840;2024-02-16T18:46:04;6.70;;;4.57;;
77038;SDS011;65970;50.476;4.840;2024-02-16T18:51:05;7.57;;;5.28;;
77038;SDS011;65970;50.476;4.840;2024-02-16T18:56:07;5.20;;;3.33;;
77038;SDS011;65970;50.476;4.840;2024-02-16T19:01:07;5.80;;;3.15;;
77038;SDS011;65970;50.476;4.840;2024-02-16T19:06:08;4.38;;;2.13;;
77038;SDS011;65970;50.476;4.840;2024-02-16T19:11:08;3.28;;;1.77;;
77038;SDS011;65970;50.476;4.840;2024-02-16T19:16:09;3.47;;;1.95;;
77038;SDS011;65970;50.476;4.840;2024-02-16T19:21:10;9.52;;;1.60;;
77038;SDS011;65970;50.476;4.840;2024-02-16T19:26:10;12.30;;;1.75;;
77038;SDS011;65970;50.476;4.840;2024-02-16T19:31:11;7.40;;;1.90;;
77038;SDS011;65970;50.476;4.840;2024-02-16T19:36:11;3.08;;;1.38;;
77038;SDS011;65970;50.476;4.840;2024-02-16T19:41:12;3.03;;;1.42;;
77038;SDS011;65970;50.476;4.840;2024-02-16T19:46:12;4.03;;;1.38;;
77038;SDS011;65970;50.476;4.840;2024-02-16T19:51:13;4.60;;;1.58;;
77038;SDS011;65970;50.476;4.840;2024-02-16T19:56:13;4.28;;;1.40;;
77038;SDS011;65970;50.476;4.840;2024-02-16T20:01:14;1.33;;;1.08;;
77038;SDS011;65970;50.476;4.840;2024-02-16T20:06:14;4.72;;;1.50;;
77038;SDS011;65970;50.476;4.840;2024-02-16T20:11:15;6.72;;;1.60;;
77038;SDS011;65970;50.476;4.840;2024-02-16T20:16:17;3.28;;;1.17;;
77038;SDS011;65970;50.476;4.840;2024-02-16T20:21:17;2.60;;;1.17;;
77038;SDS011;65970;50.476;4.840;2024-02-16T20:26:24;1.73;;;1.00;;
77038;SDS011;65970;50.476;4.840;2024-02-16T20:31:25;2.60;;;1.15;;
77038;SDS011;65970;50.476;4.840;2024-02-16T20:36:25;7.40;;;1.63;;
77038;SDS011;65970;50.476;4.840;2024-02-16T20:41:26;3.92;;;1.25;;
77038;SDS011;65970;50.476;4.840;2024-02-16T20:46:26;4.13;;;1.17;;
77038;SDS011;65970;50.476;4.840;2024-02-16T20:51:27;2.28;;;1.20;;
77038;SDS011;65970;50.476;4.840;2024-02-16T20:56:28;2.20;;;1.40;;
77038;SDS011;65970;50.476;4.840;2024-02-16T21:01:28;2.95;;;1.35;;
77038;SDS011;65970;50.476;4.840;2024-02-16T21:06:30;2.75;;;1.20;;
77038;SDS011;65970;50.476;4.840;2024-02-16T21:11:31;2.47;;;1.50;;
77038;SDS011;65970;50.476;4.840;2024-02-16T21:16:31;4.47;;;1.17;;
77038;SDS011;65970;50.476;4.840;2024-02-16T21:21:32;3.08;;;1.15;;
77038;SDS011;65970;50.476;4.840;2024-02-16T21:26:32;2.05;;;0.95;;
77038;SDS011;65970;50.476;4.840;2024-02-16T21:31:33;3.38;;;2.05;;
77038;SDS011;65970;50.476;4.840;2024-02-16T21:36:34;1.60;;;1.02;;
77038;SDS011;65970;50.476;4.840;2024-02-16T21:41:34;2.53;;;1.40;;
77038;SDS011;65970;50.476;4.840;2024-02-16T21:46:35;2.40;;;1.48;;
77038;SDS011;65970;50.476;4.840;2024-02-16T21:51:36;3.92;;;1.10;;
77038;SDS011;65970;50.476;4.840;2024-02-16T21:56:37;5.95;;;2.03;;
77038;SDS011;65970;50.476;4.840;2024-02-16T22:01:38;3.50;;;1.30;;
77038;SDS011;65970;50.476;4.840;2024-02-16T22:06:39;2.45;;;1.40;;
77038;SDS011;65970;50.476;4.840;2024-02-16T22:11:39;3.47;;;1.38;;
77038;SDS011;65970;50.476;4.840;2024-02-16T22:16:40;6.22;;;1.95;;
77038;SDS011;65970;50.476;4.840;2024-02-16T22:21:40;4.72;;;1.63;;
77038;SDS011;65970;50.476;4.840;2024-02-16T22:26:41;4.35;;;1.92;;
77038;SDS011;65970;50.476;4.840;2024-02-16T22:31:41;4.65;;;1.67;;
77038;SDS011;65970;50.476;4.840;2024-02-16T22:36:42;9.48;;;1.55;;
77038;SDS011;65970;50.476;4.840;2024-02-16T22:41:42;5.43;;;1.90;;
77038;SDS011;65970;50.476;4.840;2024-02-16T22:46:43;2.65;;;1.42;;
77038;SDS011;65970;50.476;4.840;2024-02-16T22:51:43;4.93;;;1.73;;
77038;SDS011;65970;50.476;4.840;2024-02-16T22:56:44;2.00;;;0.98;;
77038;SDS011;65970;50.476;4.840;2024-02-16T23:01:44;1.85;;;1.05;;
77038;SDS011;65970;50.476;4.840;2024-02-16T23:06:45;7.32;;;1.83;;
77038;SDS011;65970;50.476;4.840;2024-02-16T23:11:45;2.08;;;1.50;;
77038;SDS011;65970;50.476;4.840;2024-02-16T23:16:46;1.88;;;1.10;;
77038;SDS011;65970;50.476;4.840;2024-02-16T23:21:46;3.65;;;1.15;;
77038;SDS011;65970;50.476;4.840;2024-02-16T23:26:47;2.90;;;1.48;;
77038;SDS011;65970;50.476;4.840;2024-02-16T23:31:47;3.38;;;1.42;;
77038;SDS011;65970;50.476;4.840;2024-02-16T23:36:48;2.13;;;1.02;;
77038;SDS011;65970;50.476;4.840;2024-02-16T23:41:48;2.17;;;1.23;;
77038;SDS011;65970;50.476;4.840;2024-02-16T23:46:49;7.07;;;1.42;;
77038;SDS011;65970;50.476;4.840;2024-02-16T23:51:49;2.85;;;1.20;;
77038;SDS011;65970;50.476;4.840;2024-02-16T23:56:50;3.03;;;1.02;;
